Wetterdaten: Woche 05.04.10 - 11.04.10 (KW14)
Datum Zeit Temperatur Luftfeuchte Luftdruck Niederschlag Wind Richtung Sonnenschein Solar Taupunkt Windchill Windben
05.04.2010 00:00 6.0 C 79 % 1020.8 hPa 0.0 l/m 1.8 km/h (1 Bft) O-SO 0.00 h 0 W/m 2.6 C 5.9 C 3.3 km/h (1 Bft)
05.04.2010 01:00 6.8 C 74 % 1021.6 hPa 0.0 l/m 13.1 km/h (3 Bft) W 0.00 h 0 W/m 2.6 C 4.4 C 20.4 km/h (4 Bft)
05.04.2010 02:00 6.0 C 79 % 1022.7 hPa 0.0 l/m 10.5 km/h (2 Bft) W 0.00 h 0 W/m 2.7 C 3.9 C 15.9 km/h (3 Bft)
05.04.2010 03:00 5.7 C 83 % 1023.4 hPa 0.0 l/m 5.9 km/h (2 Bft) W-NW 0.00 h 0 W/m 3.0 C 4.7 C 9.5 km/h (2 Bft)
05.04.2010 04:00 5.6 C 83 % 1024.0 hPa 0.0 l/m 7.0 km/h (2 Bft) W 0.00 h 0 W/m 3.0 C 4.2 C 11.2 km/h (2 Bft)
05.04.2010 05:00 5.5 C 83 % 1024.4 hPa 0.0 l/m 8.6 km/h (2 Bft) W 0.00 h 0 W/m 2.9 C 3.6 C 13.2 km/h (3 Bft)
05.04.2010 06:00 5.2 C 83 % 1025.0 hPa 0.0 l/m 12.6 km/h (3 Bft) W 0.00 h 0 W/m 2.5 C 2.5 C 19.4 km/h (3 Bft)
05.04.2010 07:00 4.9 C 83 % 1026.0 hPa 0.0 l/m 10.1 km/h (2 Bft) W 0.00 h 20 W/m 2.2 C 2.6 C 16.0 km/h (3 Bft)
05.04.2010 08:00 5.1 C 82 % 1027.0 hPa 0.0 l/m 5.7 km/h (1 Bft) W 0.00 h 77 W/m 2.2 C 4.0 C 9.3 km/h (2 Bft)
05.04.2010 09:00 5.6 C 79 % 1027.7 hPa 0.0 l/m 12.3 km/h (3 Bft) W 0.02 h 153 W/m 2.3 C 2.9 C 19.0 km/h (3 Bft)
05.04.2010 10:00 7.0 C 72 % 1028.3 hPa 0.0 l/m 10.1 km/h (2 Bft) W-SW 0.90 h 501 W/m 2.2 C 5.0 C 15.8 km/h (3 Bft)
05.04.2010 11:00 8.2 C 62 % 1028.8 hPa 0.0 l/m 11.0 km/h (2 Bft) W-SW 0.97 h 673 W/m 1.3 C 6.4 C 16.5 km/h (3 Bft)
05.04.2010 12:00 10.0 C 49 % 1028.6 hPa 0.0 l/m 8.6 km/h (2 Bft) W 1.00 h 870 W/m -0.1 C 9.6 C 13.2 km/h (3 Bft)
05.04.2010 13:00 9.9 C 49 % 1028.5 hPa 0.0 l/m 7.9 km/h (2 Bft) W 0.33 h 417 W/m -0.3 C 9.3 C 12.3 km/h (3 Bft)
05.04.2010 14:00 10.2 C 47 % 1028.4 hPa 0.0 l/m 8.4 km/h (2 Bft) W 0.32 h 413 W/m -0.7 C 9.6 C 13.2 km/h (3 Bft)
05.04.2010 15:00 10.5 C 43 % 1028.2 hPa 0.0 l/m 6.7 km/h (2 Bft) W-NW 0.27 h 354 W/m -1.5 C 10.5 C 10.5 km/h (2 Bft)
05.04.2010 16:00 10.8 C 42 % 1028.0 hPa 0.0 l/m 4.8 km/h (1 Bft) W-NW 0.30 h 294 W/m -1.7 C 10.8 C 8.0 km/h (2 Bft)
05.04.2010 17:00 11.8 C 41 % 1027.6 hPa 0.0 l/m 3.6 km/h (1 Bft) S-SO 0.57 h 277 W/m -0.9 C 11.8 C 6.3 km/h (2 Bft)
05.04.2010 18:00 10.8 C 44 % 1027.7 hPa 0.0 l/m 1.0 km/h (0 Bft) S-SO 0.30 h 106 W/m -1.1 C 10.8 C 2.8 km/h (1 Bft)
05.04.2010 19:00 10.5 C 46 % 1027.7 hPa 0.0 l/m 1.6 km/h (1 Bft) W-NW 0.30 h 44 W/m -0.8 C 10.4 C 2.9 km/h (1 Bft)
05.04.2010 20:00 7.9 C 58 % 1028.0 hPa 0.0 l/m 2.5 km/h (1 Bft) SO 0.00 h 0 W/m 0.1 C 7.6 C 3.7 km/h (1 Bft)
05.04.2010 21:00 6.0 C 69 % 1028.3 hPa 0.0 l/m 1.1 km/h (1 Bft) SO 0.00 h 0 W/m 0.8 C 5.9 C 1.8 km/h (1 Bft)
05.04.2010 22:00 4.7 C 75 % 1028.4 hPa 0.0 l/m 0.5 km/h (0 Bft) O 0.00 h 0 W/m 0.6 C 4.7 C 1.0 km/h (0 Bft)
05.04.2010 23:00 3.7 C 80 % 1028.0 hPa 0.0 l/m 0.1 km/h (0 Bft) O 0.00 h 0 W/m 0.5 C 3.7 C 0.5 km/h (0 Bft)
06.04.2010 00:00 3.0 C 82 % 1027.8 hPa 0.0 l/m 0.1 km/h (0 Bft) O 0.00 h 0 W/m 0.3 C 3.0 C 0.4 km/h (0 Bft)
06.04.2010 01:00 2.5 C 84 % 1027.6 hPa 0.0 l/m 0.1 km/h (0 Bft) O 0.00 h 0 W/m 0.0 C 2.5 C 0.7 km/h (0 Bft)
06.04.2010 02:00 2.0 C 84 % 1027.5 hPa 0.0 l/m 0.1 km/h (0 Bft) O 0.00 h 0 W/m -0.3 C 2.0 C 0.5 km/h (0 Bft)
06.04.2010 03:00 1.6 C 86 % 1027.4 hPa 0.0 l/m 0.1 km/h (0 Bft) N-NW 0.00 h 0 W/m -0.5 C 1.6 C 0.9 km/h (0 Bft)
06.04.2010 04:00 0.9 C 88 % 1027.4 hPa 0.0 l/m 2.0 km/h (1 Bft) O-SO 0.00 h 0 W/m -0.9 C 0.6 C 3.0 km/h (1 Bft)
06.04.2010 05:00 0.6 C 89 % 1027.5 hPa 0.0 l/m 0.1 km/h (0 Bft) SO 0.00 h 0 W/m -1.1 C 0.6 C 0.3 km/h (0 Bft)
06.04.2010 06:00 0.2 C 89 % 1027.5 hPa 0.0 l/m 0.2 km/h (0 Bft) SO 0.00 h 5 W/m -1.4 C 0.2 C 0.5 km/h (0 Bft)
06.04.2010 07:00 0.1 C 90 % 1027.6 hPa 0.0 l/m 0.4 km/h (0 Bft) SO 0.03 h 23 W/m -1.3 C 0.1 C 0.8 km/h (0 Bft)
06.04.2010 08:00 2.0 C 86 % 1027.6 hPa 0.0 l/m 0.4 km/h (0 Bft) N 0.92 h 185 W/m 0.0 C 2.0 C 1.4 km/h (1 Bft)
06.04.2010 09:00 4.8 C 78 % 1026.8 hPa 0.0 l/m 1.1 km/h (0 Bft) N 1.00 h 365 W/m 1.2 C 4.8 C 2.7 km/h (1 Bft)
06.04.2010 10:00 7.4 C 67 % 1026.1 hPa 0.0 l/m 6.3 km/h (2 Bft) O-SO 1.00 h 524 W/m 1.7 C 6.4 C 10.5 km/h (2 Bft)
06.04.2010 11:00 9.9 C 58 % 1025.3 hPa 0.0 l/m 3.6 km/h (1 Bft) N-NO 1.00 h 651 W/m 2.1 C 9.8 C 7.0 km/h (2 Bft)
06.04.2010 12:00 11.8 C 51 % 1024.3 hPa 0.0 l/m 5.3 km/h (1 Bft) O-SO 1.00 h 733 W/m 2.0 C 11.8 C 9.6 km/h (2 Bft)
06.04.2010 13:00 13.3 C 47 % 1023.1 hPa 0.0 l/m 6.3 km/h (2 Bft) O-SO 1.00 h 761 W/m 2.2 C 13.3 C 10.6 km/h (2 Bft)
06.04.2010 14:00 14.7 C 41 % 1022.2 hPa 0.0 l/m 7.4 km/h (2 Bft) O-SO 1.00 h 738 W/m 1.5 C 14.7 C 12.1 km/h (2 Bft)
06.04.2010 15:00 15.7 C 34 % 1021.3 hPa 0.0 l/m 7.5 km/h (2 Bft) O-SO 1.00 h 664 W/m -0.1 C 15.7 C 12.2 km/h (2 Bft)
06.04.2010 16:00 16.3 C 31 % 1020.3 hPa 0.0 l/m 7.5 km/h (2 Bft) O-SO 1.00 h 542 W/m -1.0 C 16.3 C 11.7 km/h (2 Bft)
06.04.2010 17:00 16.6 C 31 % 1019.6 hPa 0.0 l/m 8.2 km/h (2 Bft) O-SO 0.97 h 376 W/m -0.7 C 16.6 C 12.6 km/h (3 Bft)
06.04.2010 18:00 16.2 C 30 % 1019.0 hPa 0.0 l/m 8.6 km/h (2 Bft) O-SO 0.78 h 166 W/m -1.4 C 16.2 C 14.4 km/h (3 Bft)
06.04.2010 19:00 15.3 C 30 % 1018.7 hPa 0.0 l/m 3.1 km/h (1 Bft) O-SO 0.57 h 52 W/m -2.3 C 15.3 C 6.0 km/h (2 Bft)
06.04.2010 20:00 12.9 C 38 % 1018.6 hPa 0.0 l/m 1.4 km/h (1 Bft) O 0.00 h 5 W/m -1.2 C 12.9 C 2.9 km/h (1 Bft)
06.04.2010 21:00 9.7 C 53 % 1018.7 hPa 0.0 l/m 1.6 km/h (1 Bft) O 0.00 h 0 W/m 0.6 C 9.7 C 2.4 km/h (1 Bft)
06.04.2010 22:00 7.9 C 64 % 1018.8 hPa 0.0 l/m 1.0 km/h (0 Bft) O 0.00 h 0 W/m 1.4 C 7.9 C 1.9 km/h (1 Bft)
06.04.2010 23:00 7.0 C 69 % 1018.9 hPa 0.0 l/m 1.4 km/h (1 Bft) O 0.00 h 0 W/m 1.8 C 7.0 C 2.5 km/h (1 Bft)
07.04.2010 00:00 6.1 C 73 % 1018.8 hPa 0.0 l/m 2.3 km/h (1 Bft) O 0.00 h 0 W/m 1.6 C 6.0 C 3.6 km/h (1 Bft)
07.04.2010 01:00 5.3 C 76 % 1018.7 hPa 0.0 l/m 1.4 km/h (1 Bft) O 0.00 h 0 W/m 1.5 C 5.3 C 2.6 km/h (1 Bft)
07.04.2010 02:00 4.5 C 79 % 1018.7 hPa 0.0 l/m 0.8 km/h (0 Bft) O 0.00 h 0 W/m 1.2 C 4.5 C 1.6 km/h (1 Bft)
07.04.2010 03:00 4.0 C 82 % 1018.5 hPa 0.0 l/m 0.4 km/h (0 Bft) O 0.00 h 0 W/m 1.2 C 4.0 C 1.3 km/h (1 Bft)
07.04.2010 04:00 3.8 C 83 % 1018.5 hPa 0.0 l/m 1.1 km/h (1 Bft) NO 0.00 h 0 W/m 1.2 C 3.8 C 2.3 km/h (1 Bft)
07.04.2010 05:00 2.8 C 86 % 1018.7 hPa 0.0 l/m 1.1 km/h (0 Bft) O-SO 0.00 h 0 W/m 0.7 C 2.8 C 2.0 km/h (1 Bft)
07.04.2010 06:00 2.2 C 88 % 1019.0 hPa 0.0 l/m 1.2 km/h (1 Bft) O-SO 0.00 h 6 W/m 0.4 C 2.2 C 2.1 km/h (1 Bft)
07.04.2010 07:00 2.0 C 89 % 1019.4 hPa 0.0 l/m 1.0 km/h (0 Bft) O-SO 0.08 h 27 W/m 0.4 C 2.0 C 1.8 km/h (1 Bft)
07.04.2010 08:00 3.9 C 84 % 1019.7 hPa 0.0 l/m 0.1 km/h (0 Bft) O-SO 0.90 h 189 W/m 1.5 C 3.9 C 0.3 km/h (0 Bft)
07.04.2010 09:00 6.5 C 77 % 1019.8 hPa 0.0 l/m 0.7 km/h (0 Bft) NW 1.00 h 360 W/m 2.7 C 6.5 C 2.0 km/h (1 Bft)
07.04.2010 10:00 9.6 C 67 % 1019.4 hPa 0.0 l/m 1.3 km/h (1 Bft) NW 1.00 h 520 W/m 3.6 C 9.6 C 3.1 km/h (1 Bft)
07.04.2010 11:00 12.8 C 58 % 1018.9 hPa 0.0 l/m 1.7 km/h (1 Bft) NW 1.00 h 654 W/m 4.7 C 12.8 C 3.9 km/h (1 Bft)
07.04.2010 12:00 15.4 C 51 % 1017.9 hPa 0.0 l/m 2.4 km/h (1 Bft) S 1.00 h 737 W/m 5.2 C 15.4 C 4.8 km/h (1 Bft)
07.04.2010 13:00 17.7 C 46 % 1017.1 hPa 0.0 l/m 2.9 km/h (1 Bft) S-SW 1.00 h 753 W/m 5.9 C 17.7 C 5.5 km/h (1 Bft)
07.04.2010 14:00 19.5 C 41 % 1016.4 hPa 0.0 l/m 2.1 km/h (1 Bft) S 1.00 h 712 W/m 5.8 C 19.5 C 4.4 km/h (1 Bft)
07.04.2010 15:00 21.1 C 34 % 1015.8 hPa 0.0 l/m 3.5 km/h (1 Bft) W-NW 1.00 h 623 W/m 4.7 C 21.1 C 5.7 km/h (1 Bft)
07.04.2010 16:00 21.8 C 29 % 1015.5 hPa 0.0 l/m 3.1 km/h (1 Bft) W-NW 1.00 h 539 W/m 3.1 C 21.8 C 5.5 km/h (1 Bft)
07.04.2010 17:00 22.5 C 27 % 1015.4 hPa 0.0 l/m 3.2 km/h (1 Bft) N-NW 0.97 h 354 W/m 2.6 C 22.5 C 5.7 km/h (1 Bft)
07.04.2010 18:00 21.3 C 27 % 1015.2 hPa 0.0 l/m 3.7 km/h (1 Bft) N-NW 0.43 h 139 W/m 1.5 C 21.3 C 6.0 km/h (2 Bft)
07.04.2010 19:00 18.2 C 31 % 1015.8 hPa 0.0 l/m 13.5 km/h (3 Bft) W 0.00 h 22 W/m 0.7 C 18.2 C 21.2 km/h (4 Bft)
07.04.2010 20:00 16.4 C 33 % 1016.7 hPa 0.0 l/m 10.3 km/h (2 Bft) W-NW 0.00 h 0 W/m 0.0 C 16.4 C 17.6 km/h (3 Bft)
07.04.2010 21:00 15.8 C 34 % 1017.3 hPa 0.0 l/m 9.8 km/h (2 Bft) W-NW 0.00 h 0 W/m -0.1 C 15.8 C 16.5 km/h (3 Bft)
07.04.2010 22:00 15.1 C 37 % 1017.6 hPa 0.0 l/m 7.7 km/h (2 Bft) W-NW 0.00 h 0 W/m 0.6 C 15.1 C 12.7 km/h (3 Bft)
07.04.2010 23:00 14.2 C 42 % 1017.7 hPa 0.0 l/m 6.1 km/h (2 Bft) N-NW 0.00 h 0 W/m 1.4 C 14.2 C 10.4 km/h (2 Bft)
08.04.2010 00:00 13.5 C 48 % 1017.9 hPa 0.0 l/m 4.2 km/h (1 Bft) W-NW 0.00 h 0 W/m 2.7 C 13.5 C 7.2 km/h (2 Bft)
08.04.2010 01:00 12.7 C 57 % 1018.3 hPa 0.0 l/m 6.1 km/h (2 Bft) W 0.00 h 0 W/m 4.4 C 12.7 C 9.9 km/h (2 Bft)
08.04.2010 02:00 11.6 C 66 % 1018.3 hPa 0.0 l/m 5.7 km/h (1 Bft) W-NW 0.00 h 0 W/m 5.5 C 11.6 C 10.1 km/h (2 Bft)
08.04.2010 03:00 10.9 C 71 % 1018.3 hPa 0.0 l/m 3.8 km/h (1 Bft) NW 0.00 h 0 W/m 5.8 C 10.9 C 7.6 km/h (2 Bft)
08.04.2010 04:00 10.4 C 74 % 1018.6 hPa 0.0 l/m 1.0 km/h (0 Bft) SW 0.00 h 0 W/m 6.0 C 10.4 C 2.9 km/h (1 Bft)
08.04.2010 05:00 10.2 C 77 % 1019.1 hPa 0.0 l/m 0.9 km/h (0 Bft) SW 0.00 h 0 W/m 6.3 C 10.2 C 2.6 km/h (1 Bft)
08.04.2010 06:00 9.8 C 79 % 1019.6 hPa 0.0 l/m 0.5 km/h (0 Bft) NO 0.00 h 7 W/m 6.4 C 9.8 C 1.8 km/h (1 Bft)
08.04.2010 07:00 9.8 C 81 % 1020.3 hPa 0.0 l/m 0.0 km/h (0 Bft) SW 0.03 h 29 W/m 6.7 C 9.8 C 0.5 km/h (0 Bft)
08.04.2010 08:00 10.4 C 80 % 1021.1 hPa 0.0 l/m 1.9 km/h (1 Bft) W 0.00 h 75 W/m 7.1 C 10.4 C 4.0 km/h (1 Bft)
08.04.2010 09:00 10.9 C 79 % 1021.5 hPa 0.0 l/m 2.1 km/h (1 Bft) W-SW 0.00 h 149 W/m 7.5 C 10.9 C 4.3 km/h (1 Bft)
08.04.2010 10:00 11.6 C 77 % 1021.8 hPa 0.0 l/m 5.1 km/h (1 Bft) W 0.00 h 228 W/m 7.7 C 11.6 C 7.9 km/h (2 Bft)
08.04.2010 11:00 12.6 C 73 % 1022.0 hPa 0.0 l/m 3.8 km/h (1 Bft) W 0.28 h 371 W/m 7.8 C 12.6 C 6.4 km/h (2 Bft)
08.04.2010 12:00 14.5 C 64 % 1021.9 hPa 0.0 l/m 3.4 km/h (1 Bft) W-NW 1.00 h 602 W/m 7.8 C 14.5 C 5.8 km/h (2 Bft)
08.04.2010 13:00 15.5 C 60 % 1021.8 hPa 0.0 l/m 3.4 km/h (1 Bft) W-NW 1.00 h 523 W/m 7.7 C 15.5 C 6.0 km/h (2 Bft)
08.04.2010 14:00 16.2 C 58 % 1021.8 hPa 0.0 l/m 6.9 km/h (2 Bft) W-SW 1.00 h 555 W/m 7.9 C 16.2 C 10.5 km/h (2 Bft)
08.04.2010 15:00 16.6 C 58 % 1021.8 hPa 0.0 l/m 9.0 km/h (2 Bft) W-SW 1.00 h 617 W/m 8.3 C 16.6 C 13.7 km/h (3 Bft)
08.04.2010 16:00 17.0 C 57 % 1021.5 hPa 0.0 l/m 7.9 km/h (2 Bft) W 0.95 h 453 W/m 8.4 C 17.0 C 12.3 km/h (3 Bft)
08.04.2010 17:00 16.1 C 57 % 1021.8 hPa 0.0 l/m 8.7 km/h (2 Bft) N-NW 0.00 h 138 W/m 7.5 C 16.1 C 13.7 km/h (3 Bft)
08.04.2010 18:00 15.1 C 58 % 1022.5 hPa 0.0 l/m 7.0 km/h (2 Bft) N-NW 0.00 h 61 W/m 6.9 C 15.1 C 11.5 km/h (2 Bft)
08.04.2010 19:00 14.3 C 62 % 1023.2 hPa 0.0 l/m 3.4 km/h (1 Bft) N-NW 0.00 h 24 W/m 7.1 C 14.3 C 5.8 km/h (2 Bft)
08.04.2010 20:00 13.5 C 66 % 1023.7 hPa 0.0 l/m 0.6 km/h (0 Bft) N-NW 0.00 h 0 W/m 7.4 C 13.5 C 1.8 km/h (1 Bft)
08.04.2010 21:00 12.6 C 71 % 1024.3 hPa 0.0 l/m 0.6 km/h (0 Bft) O-NO 0.00 h 0 W/m 7.5 C 12.6 C 1.5 km/h (1 Bft)
08.04.2010 22:00 12.4 C 73 % 1024.7 hPa 0.0 l/m 2.5 km/h (1 Bft) O-SO 0.00 h 0 W/m 7.6 C 12.4 C 4.3 km/h (1 Bft)
08.04.2010 23:00 13.1 C 71 % 1024.9 hPa 0.0 l/m 2.7 km/h (1 Bft) N-NO 0.00 h 0 W/m 7.8 C 13.1 C 6.0 km/h (2 Bft)
09.04.2010 00:00 13.1 C 69 % 1025.1 hPa 0.0 l/m 2.7 km/h (1 Bft) N-NO 0.00 h 0 W/m 7.5 C 13.1 C 6.0 km/h (2 Bft)
09.04.2010 01:00 12.4 C 71 % 1025.1 hPa 0.0 l/m 2.0 km/h (1 Bft) N-NO 0.00 h 0 W/m 7.2 C 12.4 C 4.6 km/h (1 Bft)
09.04.2010 02:00 11.7 C 73 % 1025.3 hPa 0.0 l/m 4.1 km/h (1 Bft) N-NO 0.00 h 0 W/m 6.9 C 11.7 C 8.1 km/h (2 Bft)
09.04.2010 03:00 10.8 C 76 % 1025.6 hPa 0.0 l/m 4.1 km/h (1 Bft) N 0.00 h 0 W/m 6.7 C 10.8 C 7.9 km/h (2 Bft)
09.04.2010 04:00 10.1 C 79 % 1025.8 hPa 0.0 l/m 1.6 km/h (1 Bft) NO 0.00 h 0 W/m 6.6 C 10.1 C 3.6 km/h (1 Bft)
09.04.2010 05:00 9.4 C 81 % 1026.2 hPa 0.0 l/m 1.0 km/h (0 Bft) N-NO 0.00 h 0 W/m 6.3 C 9.4 C 3.0 km/h (1 Bft)
09.04.2010 06:00 8.7 C 82 % 1026.5 hPa 0.0 l/m 0.1 km/h (0 Bft) N-NO 0.00 h 8 W/m 5.9 C 8.7 C 0.9 km/h (0 Bft)
09.04.2010 07:00 7.7 C 88 % 1027.3 hPa 0.0 l/m 0.3 km/h (0 Bft) N-NO 0.57 h 53 W/m 5.8 C 7.7 C 1.5 km/h (1 Bft)
09.04.2010 08:00 8.0 C 88 % 1027.8 hPa 0.0 l/m 0.5 km/h (0 Bft) N-NO 0.28 h 119 W/m 6.2 C 8.0 C 1.8 km/h (1 Bft)
09.04.2010 09:00 10.0 C 82 % 1027.9 hPa 0.0 l/m 0.3 km/h (0 Bft) N-NO 0.90 h 286 W/m 7.1 C 10.0 C 1.6 km/h (1 Bft)
09.04.2010 10:00 12.8 C 70 % 1027.8 hPa 0.0 l/m 2.9 km/h (1 Bft) N-NO 0.68 h 365 W/m 7.5 C 12.8 C 6.0 km/h (2 Bft)
09.04.2010 11:00 13.7 C 65 % 1027.7 hPa 0.0 l/m 3.2 km/h (1 Bft) O-SO 0.13 h 340 W/m 7.3 C 13.7 C 7.0 km/h (2 Bft)
09.04.2010 12:00 14.9 C 62 % 1027.5 hPa 0.0 l/m 4.5 km/h (1 Bft) N-NW 0.43 h 442 W/m 7.6 C 14.9 C 8.9 km/h (2 Bft)
09.04.2010 13:00 16.2 C 57 % 1027.1 hPa 0.0 l/m 6.4 km/h (2 Bft) N 0.85 h 662 W/m 7.7 C 16.2 C 12.2 km/h (2 Bft)
09.04.2010 14:00 16.7 C 56 % 1026.7 hPa 0.0 l/m 5.6 km/h (1 Bft) N 0.50 h 487 W/m 7.7 C 16.7 C 10.1 km/h (2 Bft)
09.04.2010 15:00 17.5 C 52 % 1026.2 hPa 0.0 l/m 5.0 km/h (1 Bft) NO 0.77 h 516 W/m 7.7 C 17.5 C 9.3 km/h (2 Bft)
09.04.2010 16:00 17.3 C 54 % 1026.1 hPa 0.2 l/m 3.8 km/h (1 Bft) O-SO 0.90 h 440 W/m 8.0 C 17.3 C 8.0 km/h (2 Bft)
09.04.2010 17:00 16.6 C 56 % 1026.1 hPa 0.0 l/m 5.4 km/h (1 Bft) NO 0.97 h 294 W/m 7.7 C 16.6 C 11.3 km/h (2 Bft)
09.04.2010 18:00 15.3 C 59 % 1026.6 hPa 0.0 l/m 5.9 km/h (2 Bft) N-NO 0.50 h 150 W/m 7.4 C 15.3 C 11.9 km/h (2 Bft)
09.04.2010 19:00 13.2 C 65 % 1027.4 hPa 0.0 l/m 3.9 km/h (1 Bft) O 0.00 h 37 W/m 6.8 C 13.2 C 9.1 km/h (2 Bft)
09.04.2010 20:00 11.8 C 68 % 1028.1 hPa 0.0 l/m 2.6 km/h (1 Bft) N-NO 0.00 h 5 W/m 6.2 C 11.8 C 5.9 km/h (2 Bft)
09.04.2010 21:00 11.1 C 71 % 1028.8 hPa 0.0 l/m 0.9 km/h (0 Bft) O-SO 0.00 h 0 W/m 5.9 C 11.1 C 2.4 km/h (1 Bft)
09.04.2010 22:00 10.4 C 73 % 1029.0 hPa 0.0 l/m 0.5 km/h (0 Bft) NO 0.00 h 0 W/m 5.9 C 10.4 C 1.8 km/h (1 Bft)
09.04.2010 23:00 9.3 C 77 % 1028.8 hPa 0.0 l/m 0.7 km/h (0 Bft) O-SO 0.00 h 0 W/m 5.5 C 9.3 C 1.8 km/h (1 Bft)
10.04.2010 00:00 8.3 C 81 % 1028.6 hPa 0.0 l/m 0.4 km/h (0 Bft) O-SO 0.00 h 0 W/m 5.3 C 8.3 C 1.5 km/h (1 Bft)
10.04.2010 01:00 7.7 C 85 % 1028.3 hPa 0.0 l/m 0.1 km/h (0 Bft) O-SO 0.00 h 0 W/m 5.3 C 7.7 C 0.9 km/h (0 Bft)
10.04.2010 02:00 7.3 C 86 % 1027.7 hPa 0.0 l/m 0.6 km/h (0 Bft) N-NO 0.00 h 0 W/m 5.1 C 7.3 C 1.8 km/h (1 Bft)
10.04.2010 03:00 7.1 C 83 % 1027.6 hPa 0.0 l/m 1.4 km/h (1 Bft) SO 0.00 h 0 W/m 4.5 C 7.1 C 2.8 km/h (1 Bft)
10.04.2010 04:00 6.9 C 80 % 1027.6 hPa 0.0 l/m 0.5 km/h (0 Bft) O-SO 0.00 h 0 W/m 3.8 C 6.9 C 1.5 km/h (1 Bft)
10.04.2010 05:00 6.0 C 85 % 1027.7 hPa 0.0 l/m 0.3 km/h (0 Bft) O-NO 0.00 h 0 W/m 3.7 C 6.0 C 1.5 km/h (1 Bft)
10.04.2010 06:00 5.2 C 88 % 1027.8 hPa 0.0 l/m 0.0 km/h (0 Bft) O-NO 0.02 h 7 W/m 3.4 C 5.2 C 0.2 km/h (0 Bft)
10.04.2010 07:00 5.3 C 86 % 1028.0 hPa 0.0 l/m 0.0 km/h (0 Bft) N 0.03 h 43 W/m 3.3 C 5.3 C 0.7 km/h (0 Bft)
10.04.2010 08:00 6.6 C 82 % 1027.9 hPa 0.0 l/m 0.0 km/h (0 Bft) N 0.83 h 167 W/m 3.8 C 6.6 C 0.1 km/h (0 Bft)
10.04.2010 09:00 9.0 C 70 % 1027.3 hPa 0.0 l/m 0.3 km/h (0 Bft) NO 0.98 h 359 W/m 3.9 C 9.0 C 1.3 km/h (1 Bft)
10.04.2010 10:00 11.9 C 57 % 1026.7 hPa 0.0 l/m 3.0 km/h (1 Bft) N 1.00 h 435 W/m 3.6 C 11.9 C 6.2 km/h (2 Bft)
10.04.2010 11:00 13.5 C 51 % 1026.3 hPa 0.0 l/m 4.0 km/h (1 Bft) NO 1.00 h 616 W/m 3.5 C 13.5 C 7.8 km/h (2 Bft)
10.04.2010 12:00 14.7 C 46 % 1025.7 hPa 0.0 l/m 4.8 km/h (1 Bft) O-SO 0.88 h 728 W/m 3.2 C 14.7 C 9.3 km/h (2 Bft)
10.04.2010 13:00 15.3 C 43 % 1024.9 hPa 0.0 l/m 5.1 km/h (1 Bft) N-NW 0.85 h 695 W/m 2.9 C 15.3 C 9.2 km/h (2 Bft)
10.04.2010 14:00 16.2 C 41 % 1024.2 hPa 0.0 l/m 6.0 km/h (2 Bft) O-SO 0.98 h 740 W/m 2.9 C 16.2 C 10.7 km/h (2 Bft)
10.04.2010 15:00 16.8 C 39 % 1023.4 hPa 0.0 l/m 5.4 km/h (1 Bft) N-NO 0.72 h 564 W/m 2.7 C 16.8 C 10.3 km/h (2 Bft)
10.04.2010 16:00 16.9 C 38 % 1022.7 hPa 0.0 l/m 4.8 km/h (1 Bft) N 0.80 h 457 W/m 2.6 C 16.9 C 9.8 km/h (2 Bft)
10.04.2010 17:00 15.7 C 40 % 1022.4 hPa 0.0 l/m 3.2 km/h (1 Bft) O-NO 0.07 h 158 W/m 2.2 C 15.7 C 7.0 km/h (2 Bft)
10.04.2010 18:00 14.7 C 43 % 1022.1 hPa 0.0 l/m 2.2 km/h (1 Bft) NO 0.00 h 77 W/m 2.3 C 14.7 C 5.9 km/h (2 Bft)
10.04.2010 19:00 13.9 C 46 % 1021.9 hPa 0.0 l/m 3.5 km/h (1 Bft) N-NO 0.00 h 22 W/m 2.6 C 13.9 C 7.3 km/h (2 Bft)
10.04.2010 20:00 13.0 C 49 % 1021.9 hPa 0.0 l/m 3.0 km/h (1 Bft) N-NO 0.00 h 5 W/m 2.5 C 13.0 C 6.1 km/h (2 Bft)
10.04.2010 21:00 12.0 C 50 % 1021.9 hPa 0.0 l/m 4.7 km/h (1 Bft) N-NO 0.00 h 0 W/m 2.1 C 12.0 C 9.5 km/h (2 Bft)
10.04.2010 22:00 11.2 C 49 % 1021.7 hPa 0.0 l/m 5.5 km/h (1 Bft) NO 0.00 h 0 W/m 1.0 C 11.2 C 10.7 km/h (2 Bft)
10.04.2010 23:00 10.5 C 51 % 1021.5 hPa 0.0 l/m 3.6 km/h (1 Bft) N-NO 0.00 h 0 W/m 0.8 C 10.5 C 7.7 km/h (2 Bft)
11.04.2010 00:00 9.7 C 52 % 1021.5 hPa 0.0 l/m 6.0 km/h (2 Bft) N-NO 0.00 h 0 W/m 0.3 C 9.2 C 11.9 km/h (2 Bft)
11.04.2010 01:00 8.5 C 54 % 1021.6 hPa 0.0 l/m 4.6 km/h (1 Bft) O 0.00 h 0 W/m -0.2 C 8.1 C 10.4 km/h (2 Bft)
11.04.2010 02:00 7.3 C 54 % 1021.2 hPa 0.0 l/m 4.0 km/h (1 Bft) N-NO 0.00 h 0 W/m -1.3 C 6.9 C 8.6 km/h (2 Bft)
11.04.2010 03:00 6.1 C 56 % 1020.7 hPa 0.0 l/m 2.8 km/h (1 Bft) N 0.00 h 0 W/m -2.0 C 5.8 C 5.8 km/h (2 Bft)
11.04.2010 04:00 5.2 C 59 % 1020.4 hPa 0.0 l/m 1.1 km/h (1 Bft) NO 0.00 h 0 W/m -2.2 C 5.2 C 3.1 km/h (1 Bft)
11.04.2010 05:00 4.2 C 62 % 1020.3 hPa 0.0 l/m 2.6 km/h (1 Bft) NO 0.00 h 0 W/m -2.4 C 4.0 C 5.7 km/h (1 Bft)
11.04.2010 06:00 3.4 C 65 % 1020.2 hPa 0.0 l/m 0.7 km/h (0 Bft) NO 0.05 h 8 W/m -2.5 C 3.4 C 2.2 km/h (1 Bft)
11.04.2010 07:00 3.5 C 66 % 1020.0 hPa 0.0 l/m 1.1 km/h (1 Bft) O-NO 0.03 h 31 W/m -2.3 C 3.5 C 3.3 km/h (1 Bft)
11.04.2010 08:00 5.1 C 63 % 1019.9 hPa 0.0 l/m 2.0 km/h (1 Bft) O-SO 1.00 h 217 W/m -1.4 C 5.0 C 4.7 km/h (1 Bft)
11.04.2010 09:00 7.0 C 59 % 1019.2 hPa 0.0 l/m 3.4 km/h (1 Bft) O-SO 1.00 h 387 W/m -0.6 C 6.7 C 7.2 km/h (2 Bft)
11.04.2010 10:00 8.8 C 54 % 1018.4 hPa 0.0 l/m 5.7 km/h (1 Bft) O-SO 0.97 h 626 W/m 0.0 C 8.1 C 10.5 km/h (2 Bft)
11.04.2010 11:00 10.1 C 49 % 1017.6 hPa 0.0 l/m 9.1 km/h (2 Bft) O-SO 0.87 h 717 W/m -0.1 C 9.3 C 15.2 km/h (3 Bft)
11.04.2010 12:00 10.3 C 49 % 1017.2 hPa 0.0 l/m 7.9 km/h (2 Bft) N-NW 0.33 h 463 W/m -0.1 C 10.0 C 14.5 km/h (3 Bft)
11.04.2010 13:00 10.9 C 45 % 1016.4 hPa 0.0 l/m 6.0 km/h (2 Bft) N 0.18 h 430 W/m -0.4 C 10.9 C 11.8 km/h (2 Bft)
11.04.2010 14:00 10.8 C 44 % 1016.0 hPa 0.0 l/m 7.2 km/h (2 Bft) N-NO 0.33 h 422 W/m -0.9 C 10.8 C 13.8 km/h (3 Bft)
11.04.2010 15:00 10.0 C 54 % 1015.8 hPa 0.0 l/m 7.9 km/h (2 Bft) N 0.37 h 363 W/m 1.2 C 9.6 C 15.8 km/h (3 Bft)
11.04.2010 16:00 9.6 C 54 % 1015.8 hPa 0.0 l/m 8.6 km/h (2 Bft) N 0.42 h 290 W/m 0.7 C 8.7 C 16.3 km/h (3 Bft)
11.04.2010 17:00 10.6 C 49 % 1015.1 hPa 0.0 l/m 6.4 km/h (2 Bft) N-NO 0.80 h 327 W/m 0.4 C 10.6 C 12.3 km/h (3 Bft)
11.04.2010 18:00 8.7 C 61 % 1015.3 hPa 0.0 l/m 5.8 km/h (2 Bft) N-NO 0.02 h 77 W/m 1.7 C 8.1 C 11.2 km/h (2 Bft)
11.04.2010 19:00 7.6 C 65 % 1015.5 hPa 0.0 l/m 8.7 km/h (2 Bft) N 0.00 h 26 W/m 1.5 C 6.2 C 14.8 km/h (3 Bft)
11.04.2010 20:00 7.0 C 68 % 1015.9 hPa 0.0 l/m 4.8 km/h (1 Bft) N 0.00 h 6 W/m 1.6 C 6.4 C 9.5 km/h (2 Bft)
11.04.2010 21:00 6.1 C 70 % 1016.2 hPa 0.0 l/m 2.5 km/h (1 Bft) N-NW 0.00 h 0 W/m 1.0 C 5.9 C 5.4 km/h (1 Bft)
11.04.2010 22:00 5.6 C 68 % 1016.3 hPa 0.0 l/m 2.2 km/h (1 Bft) N 0.00 h 0 W/m 0.3 C 5.4 C 5.0 km/h (1 Bft)
11.04.2010 23:00 5.2 C 70 % 1016.1 hPa 0.0 l/m 1.7 km/h (1 Bft) NO 0.00 h 0 W/m 0.1 C 5.1 C 4.7 km/h (1 Bft)
Min-Datum _ 06.04.10 07.04.10 11.04.10 - 05.04.10 - - - 06.04.10 06.04.10 05.04.10
_ Min-Zeit 07:24 17:09 17:45 - 00:13 - - - 19:13 04:13 00:24
Minimum _ -0.3 C 23 % 1014.9 hPa - 0.0 km/h (0 Bft) - - - -3.1 C -0.8 C 0.0 km/h (0 Bft)
Max-Datum _ 07.04.10 06.04.10 09.04.10 09.04.10 07.04.10 - 05.04.10 11.04.10 09.04.10 07.04.10 05.04.10
_ Max-Zeit 17:08 02:46 22:00 16:57 19:19 - 09:59 13:32 16:57 17:08 01:11
Maximum _ 23.4 C 91 % 1029.1 hPa 0.2 l/m 22.6 km/h
W (4 Bft)
- 0.02 h 1099 W/m 9.7 C 23.4 C 34.8 km/h
W (5 Bft)
Durchschnitt _ 10.2 C 63 % 1022.8 hPa #0.2 l/m 3.8 km/h (1 Bft) O-SO #54:12 h 197 W/m 2.9 C 10.0 C 7.0 km/h (2 Bft)
© Kaiko 2010